TimeEDT,TemperatureF,Dew PointF,Humidity,Sea Level PressureIn,VisibilityMPH,Wind Direction,Wind SpeedMPH,Gust SpeedMPH,PrecipitationIn,Events,Conditions,WindDirDegrees,DateUTC
12:53 AM,64.0,61.0,90,30.19,5.0,Calm,Calm,-,N/A,,Clear,0,2013-08-21 04:53:00
1:53 AM,63.0,61.0,93,30.19,4.0,Calm,Calm,-,N/A,,Clear,0,2013-08-21 05:53:00
2:53 AM,62.1,60.1,93,30.19,4.0,Calm,Calm,-,N/A,,Clear,0,2013-08-21 06:53:00
3:53 AM,62.1,60.1,93,30.18,3.0,Calm,Calm,-,N/A,,Clear,0,2013-08-21 07:53:00
4:28 AM,60.8,59.0,94,30.20,2.0,Calm,Calm,-,N/A,,Clear,0,2013-08-21 08:28:00
4:46 AM,60.8,59.0,94,30.20,4.0,Calm,Calm,-,N/A,,Clear,0,2013-08-21 08:46:00
4:53 AM,62.1,59.0,90,30.18,4.0,Calm,Calm,-,N/A,,Clear,0,2013-08-21 08:53:00
5:38 AM,60.8,59.0,94,30.21,2.5,Calm,Calm,-,N/A,,Clear,0,2013-08-21 09:38:00
5:45 AM,62.6,59.0,88,30.21,4.0,Calm,Calm,-,N/A,,Clear,0,2013-08-21 09:45:00
5:53 AM,60.1,57.9,93,30.18,3.0,Calm,Calm,-,N/A,,Clear,0,2013-08-21 09:53:00
6:00 AM,60.8,59.0,94,30.20,1.8,Calm,Calm,-,N/A,,Clear,0,2013-08-21 10:00:00
6:28 AM,60.8,59.0,94,30.21,2.5,Calm,Calm,-,N/A,,Clear,0,2013-08-21 10:28:00
6:49 AM,60.8,57.2,88,30.22,4.0,Calm,Calm,-,N/A,,Clear,0,2013-08-21 10:49:00
6:53 AM,60.1,59.0,96,30.20,4.0,Calm,Calm,-,N/A,,Clear,0,2013-08-21 10:53:00
7:53 AM,63.0,60.1,90,30.21,7.0,Calm,Calm,-,N/A,,Clear,0,2013-08-21 11:53:00
8:53 AM,69.1,63.0,81,30.21,8.0,Calm,Calm,-,N/A,,Clear,0,2013-08-21 12:53:00
9:53 AM,73.9,66.0,76,30.21,10.0,Calm,Calm,-,N/A,,Clear,0,2013-08-21 13:53:00
10:53 AM,78.1,66.9,68,30.21,10.0,West,3.5,-,N/A,,Clear,270,2013-08-21 14:53:00
11:53 AM,79.0,66.0,64,30.20,10.0,Calm,Calm,-,N/A,,Clear,0,2013-08-21 15:53:00
12:53 PM,82.0,66.9,60,30.19,10.0,WSW,3.5,-,N/A,,Clear,250,2013-08-21 16:53:00
1:53 PM,82.0,68.0,62,30.17,10.0,Variable,3.5,-,N/A,,Mostly Cloudy,0,2013-08-21 17:53:00
2:53 PM,82.0,66.9,60,30.16,10.0,Variable,3.5,-,N/A,,Clear,0,2013-08-21 18:53:00
3:53 PM,84.0,68.0,58,30.13,10.0,South,3.5,-,N/A,,Scattered Clouds,180,2013-08-21 19:53:00
4:53 PM,81.0,69.1,67,30.12,8.0,WSW,4.6,-,0.00,Rain,Light Rain,250,2013-08-21 20:53:00
5:21 PM,75.2,69.8,83,30.14,8.0,West,3.5,-,0.00,Rain-Thunderstorm,Light Thunderstorms and Rain,260,2013-08-21 21:21:00
5:53 PM,73.0,66.9,81,30.14,10.0,Calm,Calm,-,0.00,Thunderstorm,Thunderstorm,0,2013-08-21 21:53:00
6:53 PM,69.1,63.0,81,30.13,10.0,South,3.5,-,0.01,Thunderstorm,Thunderstorm,170,2013-08-21 22:53:00
7:53 PM,68.0,64.0,87,30.13,10.0,Calm,Calm,-,0.01,Rain-Thunderstorm,Light Thunderstorms and Rain,0,2013-08-21 23:53:00
8:53 PM,68.0,64.0,87,30.14,10.0,South,5.8,-,0.02,Rain-Thunderstorm,Light Thunderstorms and Rain,170,2013-08-22 00:53:00
9:49 PM,66.2,64.4,94,30.15,10.0,Calm,Calm,-,0.02,,Clear,0,2013-08-22 01:49:00
9:53 PM,66.9,64.0,90,30.13,10.0,Calm,Calm,-,0.02,,Clear,0,2013-08-22 01:53:00
10:53 PM,66.9,64.0,90,30.12,10.0,Calm,Calm,-,N/A,,Clear,0,2013-08-22 02:53:00
11:53 PM,66.9,64.0,90,30.13,10.0,SW,4.6,-,N/A,,Partly Cloudy,220,2013-08-22 03:53:00